sensor_id;sensor_type;location;lat;lon;timestamp;pressure;altitude;pressure_sealevel;temperature;humidity
61055;BME280;46939;48.940;8.258;2022-12-16T00:01:54;99262.84;;;7.53;42.20
61055;BME280;46939;48.940;8.258;2022-12-16T00:04:23;99272.16;;;7.49;42.04
61055;BME280;46939;48.940;8.258;2022-12-16T00:06:51;99267.09;;;7.47;42.51
61055;BME280;46939;48.940;8.258;2022-12-16T00:09:20;99270.75;;;7.53;41.99
61055;BME280;46939;48.940;8.258;2022-12-16T00:11:48;99278.44;;;7.48;42.03
61055;BME280;46939;48.940;8.258;2022-12-16T00:14:16;99281.81;;;7.35;42.24
61055;BME280;46939;48.940;8.258;2022-12-16T00:16:47;99276.63;;;7.48;42.12
61055;BME280;46939;48.940;8.258;2022-12-16T00:19:16;99284.03;;;7.31;42.10
61055;BME280;46939;48.940;8.258;2022-12-16T00:21:44;99294.88;;;7.50;42.12
61055;BME280;46939;48.940;8.258;2022-12-16T00:24:13;99291.19;;;7.44;42.17
61055;BME280;46939;48.940;8.258;2022-12-16T00:26:41;99290.84;;;7.54;41.61
61055;BME280;46939;48.940;8.258;2022-12-16T00:29:12;99290.00;;;7.47;41.67
61055;BME280;46939;48.940;8.258;2022-12-16T00:31:41;99293.91;;;7.29;41.86
61055;BME280;46939;48.940;8.258;2022-12-16T00:34:15;99287.69;;;7.37;42.04
61055;BME280;46939;48.940;8.258;2022-12-16T00:36:44;99288.22;;;7.54;41.83
61055;BME280;46939;48.940;8.258;2022-12-16T00:39:12;99289.63;;;7.50;41.82
61055;BME280;46939;48.940;8.258;2022-12-16T00:41:41;99295.31;;;7.53;41.55
61055;BME280;46939;48.940;8.258;2022-12-16T00:44:09;99309.53;;;7.59;41.36
61055;BME280;46939;48.940;8.258;2022-12-16T00:46:37;99315.56;;;7.53;41.48
61055;BME280;46939;48.940;8.258;2022-12-16T00:49:06;99323.47;;;7.53;41.64
61055;BME280;46939;48.940;8.258;2022-12-16T00:51:37;99325.13;;;7.54;41.16
61055;BME280;46939;48.940;8.258;2022-12-16T00:54:05;99326.94;;;7.53;41.41
61055;BME280;46939;48.940;8.258;2022-12-16T00:56:34;99339.84;;;7.76;41.04
61055;BME280;46939;48.940;8.258;2022-12-16T00:59:02;99336.84;;;7.51;41.15
61055;BME280;46939;48.940;8.258;2022-12-16T01:04:03;99330.94;;;7.49;41.62
61055;BME280;46939;48.940;8.258;2022-12-16T01:06:31;99347.75;;;7.76;41.36
61055;BME280;46939;48.940;8.258;2022-12-16T01:09:02;99343.84;;;7.72;41.18
61055;BME280;46939;48.940;8.258;2022-12-16T01:11:31;99349.59;;;7.82;40.79
61055;BME280;46939;48.940;8.258;2022-12-16T01:13:59;99346.69;;;7.71;41.33
61055;BME280;46939;48.940;8.258;2022-12-16T01:16:27;99351.31;;;7.62;41.61
61055;BME280;46939;48.940;8.258;2022-12-16T01:18:56;99350.88;;;7.58;41.93
61055;BME280;46939;48.940;8.258;2022-12-16T01:21:24;99350.53;;;7.68;41.40
61055;BME280;46939;48.940;8.258;2022-12-16T01:23:53;99357.19;;;7.64;41.03
61055;BME280;46939;48.940;8.258;2022-12-16T01:26:24;99365.69;;;7.59;41.37
61055;BME280;46939;48.940;8.258;2022-12-16T01:28:52;99365.19;;;7.49;41.30
61055;BME280;46939;48.940;8.258;2022-12-16T01:31:21;99360.75;;;7.50;40.92
61055;BME280;46939;48.940;8.258;2022-12-16T01:33:49;99357.63;;;7.40;41.47
61055;BME280;46939;48.940;8.258;2022-12-16T01:36:18;99352.94;;;7.35;41.02
61055;BME280;46939;48.940;8.258;2022-12-16T01:38:47;99354.28;;;7.24;41.53
61055;BME280;46939;48.940;8.258;2022-12-16T01:41:16;99358.91;;;7.22;41.99
61055;BME280;46939;48.940;8.258;2022-12-16T01:43:47;99360.00;;;7.28;42.01
61055;BME280;46939;48.940;8.258;2022-12-16T01:46:19;99354.78;;;7.34;41.88
61055;BME280;46939;48.940;8.258;2022-12-16T01:48:52;99358.41;;;7.33;41.98
61055;BME280;46939;48.940;8.258;2022-12-16T01:51:27;99354.91;;;7.26;42.30
61055;BME280;46939;48.940;8.258;2022-12-16T01:54:01;99354.28;;;7.24;42.16
61055;BME280;46939;48.940;8.258;2022-12-16T01:56:32;99356.09;;;7.24;42.44
61055;BME280;46939;48.940;8.258;2022-12-16T01:59:05;99363.34;;;7.15;42.75
61055;BME280;46939;48.940;8.258;2022-12-16T02:01:34;99361.56;;;7.22;42.42
61055;BME280;46939;48.940;8.258;2022-12-16T02:04:02;99367.72;;;7.08;42.81
61055;BME280;46939;48.940;8.258;2022-12-16T02:06:31;99364.09;;;7.09;42.61
61055;BME280;46939;48.940;8.258;2022-12-16T02:09:04;99372.50;;;7.19;42.57
61055;BME280;46939;48.940;8.258;2022-12-16T02:14:38;99378.88;;;7.31;42.50
61055;BME280;46939;48.940;8.258;2022-12-16T02:17:17;99379.72;;;7.39;42.48
61055;BME280;46939;48.940;8.258;2022-12-16T02:20:09;99375.06;;;7.41;42.53
61055;BME280;46939;48.940;8.258;2022-12-16T02:22:57;99380.34;;;7.41;42.13
61055;BME280;46939;48.940;8.258;2022-12-16T02:26:05;99378.94;;;7.38;42.38
61055;BME280;46939;48.940;8.258;2022-12-16T02:28:55;99376.66;;;7.63;41.91
61055;BME280;46939;48.940;8.258;2022-12-16T02:31:33;99382.84;;;7.49;42.08
61055;BME280;46939;48.940;8.258;2022-12-16T02:34:14;99386.59;;;7.61;41.83
61055;BME280;46939;48.940;8.258;2022-12-16T02:37:03;99389.16;;;7.54;41.75
61055;BME280;46939;48.940;8.258;2022-12-16T02:39:36;99391.00;;;7.54;41.02
61055;BME280;46939;48.940;8.258;2022-12-16T02:42:11;99396.22;;;7.47;41.28
61055;BME280;46939;48.940;8.258;2022-12-16T02:44:47;99398.47;;;7.50;41.11
61055;BME280;46939;48.940;8.258;2022-12-16T02:47:25;99394.63;;;7.53;40.88
61055;BME280;46939;48.940;8.258;2022-12-16T02:49:54;99396.78;;;7.43;40.43
61055;BME280;46939;48.940;8.258;2022-12-16T02:52:25;99403.09;;;7.48;40.65
61055;BME280;46939;48.940;8.258;2022-12-16T02:54:56;99407.47;;;7.63;40.12
61055;BME280;46939;48.940;8.258;2022-12-16T02:57:45;99408.44;;;7.55;39.85
61055;BME280;46939;48.940;8.258;2022-12-16T03:00:19;99410.88;;;7.56;39.96
61055;BME280;46939;48.940;8.258;2022-12-16T03:02:54;99424.75;;;7.44;40.15
61055;BME280;46939;48.940;8.258;2022-12-16T03:05:26;99423.56;;;7.46;39.84
61055;BME280;46939;48.940;8.258;2022-12-16T03:07:58;99416.78;;;7.58;39.90
61055;BME280;46939;48.940;8.258;2022-12-16T03:10:34;99423.66;;;7.59;39.64
61055;BME280;46939;48.940;8.258;2022-12-16T03:13:05;99418.09;;;7.48;39.90
61055;BME280;46939;48.940;8.258;2022-12-16T03:15:34;99424.00;;;7.50;40.19
61055;BME280;46939;48.940;8.258;2022-12-16T03:18:08;99426.31;;;7.59;40.01
61055;BME280;46939;48.940;8.258;2022-12-16T03:20:41;99420.38;;;7.51;40.36
61055;BME280;46939;48.940;8.258;2022-12-16T03:23:14;99428.75;;;7.61;40.16
61055;BME280;46939;48.940;8.258;2022-12-16T03:25:46;99430.75;;;7.59;40.09
61055;BME280;46939;48.940;8.258;2022-12-16T03:28:27;99423.91;;;7.65;40.17
61055;BME280;46939;48.940;8.258;2022-12-16T03:31:04;99429.50;;;7.55;39.89
61055;BME280;46939;48.940;8.258;2022-12-16T03:33:41;99427.38;;;7.65;39.70
61055;BME280;46939;48.940;8.258;2022-12-16T03:36:17;99433.97;;;7.82;39.38
61055;BME280;46939;48.940;8.258;2022-12-16T03:38:49;99431.69;;;7.73;39.87
61055;BME280;46939;48.940;8.258;2022-12-16T03:41:19;99444.22;;;7.71;39.76
61055;BME280;46939;48.940;8.258;2022-12-16T03:43:50;99439.53;;;7.66;39.46
61055;BME280;46939;48.940;8.258;2022-12-16T03:46:19;99441.00;;;7.69;39.80
61055;BME280;46939;48.940;8.258;2022-12-16T03:48:50;99443.72;;;7.54;39.54
61055;BME280;46939;48.940;8.258;2022-12-16T03:51:19;99446.13;;;7.55;39.54
61055;BME280;46939;48.940;8.258;2022-12-16T03:53:47;99444.91;;;7.51;39.54
61055;BME280;46939;48.940;8.258;2022-12-16T03:56:15;99448.09;;;7.47;39.75
61055;BME280;46939;48.940;8.258;2022-12-16T03:58:44;99452.59;;;7.53;39.30
61055;BME280;46939;48.940;8.258;2022-12-16T04:01:13;99460.78;;;7.65;39.10
61055;BME280;46939;48.940;8.258;2022-12-16T04:03:41;99454.19;;;7.47;39.27
61055;BME280;46939;48.940;8.258;2022-12-16T04:06:12;99454.50;;;7.38;39.47
61055;BME280;46939;48.940;8.258;2022-12-16T04:08:43;99462.28;;;7.46;39.54
61055;BME280;46939;48.940;8.258;2022-12-16T04:11:11;99464.72;;;7.47;39.06
61055;BME280;46939;48.940;8.258;2022-12-16T04:13:52;99462.41;;;7.38;39.41
61055;BME280;46939;48.940;8.258;2022-12-16T04:16:33;99469.50;;;7.37;39.18
61055;BME280;46939;48.940;8.258;2022-12-16T04:19:20;99474.97;;;7.36;39.17
61055;BME280;46939;48.940;8.258;2022-12-16T04:22:06;99475.56;;;7.38;39.43
61055;BME280;46939;48.940;8.258;2022-12-16T04:24:50;99479.34;;;7.28;39.52
61055;BME280;46939;48.940;8.258;2022-12-16T04:27:18;99475.19;;;7.41;38.69
61055;BME280;46939;48.940;8.258;2022-12-16T04:29:54;99481.16;;;7.28;38.98
61055;BME280;46939;48.940;8.258;2022-12-16T04:32:34;99481.97;;;7.28;39.04
61055;BME280;46939;48.940;8.258;2022-12-16T04:35:15;99492.00;;;7.18;39.38
61055;BME280;46939;48.940;8.258;2022-12-16T04:37:58;99486.88;;;7.31;38.85
61055;BME280;46939;48.940;8.258;2022-12-16T04:40:41;99492.41;;;7.15;39.22
61055;BME280;46939;48.940;8.258;2022-12-16T04:43:22;99507.00;;;7.18;39.02
61055;BME280;46939;48.940;8.258;2022-12-16T04:46:03;99504.72;;;7.15;38.74
61055;BME280;46939;48.940;8.258;2022-12-16T04:48:44;99512.38;;;7.09;38.73
61055;BME280;46939;48.940;8.258;2022-12-16T04:51:30;99510.69;;;7.02;38.68
61055;BME280;46939;48.940;8.258;2022-12-16T04:54:29;99511.31;;;7.04;38.36
61055;BME280;46939;48.940;8.258;2022-12-16T04:57:09;99515.81;;;6.89;38.63
61055;BME280;46939;48.940;8.258;2022-12-16T04:59:50;99523.88;;;6.87;38.57
61055;BME280;46939;48.940;8.258;2022-12-16T05:02:31;99525.44;;;6.81;38.52
61055;BME280;46939;48.940;8.258;2022-12-16T05:05:11;99528.19;;;6.73;38.42
61055;BME280;46939;48.940;8.258;2022-12-16T05:07:52;99527.63;;;6.78;38.34
61055;BME280;46939;48.940;8.258;2022-12-16T05:10:38;99535.53;;;6.63;38.52
61055;BME280;46939;48.940;8.258;2022-12-16T05:13:19;99541.97;;;6.60;38.33
61055;BME280;46939;48.940;8.258;2022-12-16T05:15:59;99544.97;;;6.43;38.89
61055;BME280;46939;48.940;8.258;2022-12-16T05:18:40;99549.31;;;6.35;38.92
61055;BME280;46939;48.940;8.258;2022-12-16T05:21:21;99559.19;;;6.33;39.16
61055;BME280;46939;48.940;8.258;2022-12-16T05:24:02;99566.94;;;6.50;38.53
61055;BME280;46939;48.940;8.258;2022-12-16T05:26:45;99568.47;;;6.44;38.39
61055;BME280;46939;48.940;8.258;2022-12-16T05:29:41;99574.31;;;6.17;39.18
61055;BME280;46939;48.940;8.258;2022-12-16T05:32:22;99572.31;;;6.19;38.99
61055;BME280;46939;48.940;8.258;2022-12-16T05:35:03;99586.13;;;6.21;38.49
61055;BME280;46939;48.940;8.258;2022-12-16T05:37:44;99585.94;;;6.22;38.66
61055;BME280;46939;48.940;8.258;2022-12-16T05:40:24;99595.16;;;6.18;38.71
61055;BME280;46939;48.940;8.258;2022-12-16T05:43:08;99600.09;;;6.21;38.57
61055;BME280;46939;48.940;8.258;2022-12-16T05:45:49;99608.91;;;6.28;38.60
61055;BME280;46939;48.940;8.258;2022-12-16T05:48:29;99615.69;;;6.23;38.71
61055;BME280;46939;48.940;8.258;2022-12-16T05:51:10;99610.09;;;6.03;38.99
61055;BME280;46939;48.940;8.258;2022-12-16T05:53:51;99618.97;;;6.02;38.92
61055;BME280;46939;48.940;8.258;2022-12-16T05:56:32;99623.34;;;6.09;38.78
61055;BME280;46939;48.940;8.258;2022-12-16T05:59:15;99632.31;;;6.00;38.97
61055;BME280;46939;48.940;8.258;2022-12-16T06:01:56;99633.09;;;5.78;39.46
61055;BME280;46939;48.940;8.258;2022-12-16T06:04:37;99635.47;;;5.87;39.37
61055;BME280;46939;48.940;8.258;2022-12-16T06:07:18;99637.81;;;5.82;39.64
61055;BME280;46939;48.940;8.258;2022-12-16T06:09:58;99638.97;;;5.80;39.37
61055;BME280;46939;48.940;8.258;2022-12-16T06:12:39;99635.53;;;5.79;39.59
61055;BME280;46939;48.940;8.258;2022-12-16T06:15:22;99647.34;;;5.83;39.45
61055;BME280;46939;48.940;8.258;2022-12-16T06:18:03;99647.06;;;5.78;39.80
61055;BME280;46939;48.940;8.258;2022-12-16T06:20:44;99656.22;;;5.82;39.42
61055;BME280;46939;48.940;8.258;2022-12-16T06:23:25;99660.84;;;5.80;39.44
61055;BME280;46939;48.940;8.258;2022-12-16T06:26:06;99654.75;;;5.80;39.64
61055;BME280;46939;48.940;8.258;2022-12-16T06:28:47;99662.22;;;5.68;39.59
61055;BME280;46939;48.940;8.258;2022-12-16T06:31:30;99673.53;;;5.69;39.79
61055;BME280;46939;48.940;8.258;2022-12-16T06:34:11;99672.44;;;5.63;39.88
61055;BME280;46939;48.940;8.258;2022-12-16T06:36:51;99681.13;;;5.63;39.81
61055;BME280;46939;48.940;8.258;2022-12-16T06:39:32;99685.91;;;5.60;39.97
61055;BME280;46939;48.940;8.258;2022-12-16T06:42:13;99697.13;;;5.54;39.72
61055;BME280;46939;48.940;8.258;2022-12-16T06:44:54;99691.94;;;5.37;40.28
61055;BME280;46939;48.940;8.258;2022-12-16T06:47:37;99703.75;;;5.33;40.07
61055;BME280;46939;48.940;8.258;2022-12-16T06:50:18;99706.91;;;5.29;39.98
61055;BME280;46939;48.940;8.258;2022-12-16T06:52:59;99711.53;;;5.19;40.56
61055;BME280;46939;48.940;8.258;2022-12-16T06:55:40;99708.41;;;5.23;40.26
61055;BME280;46939;48.940;8.258;2022-12-16T06:58:21;99714.31;;;5.17;40.19
61055;BME280;46939;48.940;8.258;2022-12-16T07:01:02;99724.53;;;4.96;40.78
61055;BME280;46939;48.940;8.258;2022-12-16T07:03:45;99727.16;;;4.96;40.44
61055;BME280;46939;48.940;8.258;2022-12-16T07:06:26;99733.25;;;4.88;40.65
61055;BME280;46939;48.940;8.258;2022-12-16T07:09:07;99738.69;;;4.78;41.13
61055;BME280;46939;48.940;8.258;2022-12-16T07:11:48;99743.94;;;4.78;41.09
61055;BME280;46939;48.940;8.258;2022-12-16T07:14:28;99751.00;;;4.70;40.90
61055;BME280;46939;48.940;8.258;2022-12-16T07:17:09;99761.50;;;4.78;40.74
61055;BME280;46939;48.940;8.258;2022-12-16T07:19:52;99759.00;;;4.68;40.66
61055;BME280;46939;48.940;8.258;2022-12-16T07:22:33;99771.19;;;4.69;40.63
61055;BME280;46939;48.940;8.258;2022-12-16T07:25:14;99777.72;;;4.73;40.50
61055;BME280;46939;48.940;8.258;2022-12-16T07:27:55;99781.81;;;4.68;40.29
61055;BME280;46939;48.940;8.258;2022-12-16T07:30:36;99794.13;;;4.51;40.88
61055;BME280;46939;48.940;8.258;2022-12-16T07:33:16;99791.31;;;4.52;40.88
61055;BME280;46939;48.940;8.258;2022-12-16T07:36:00;99794.75;;;4.45;40.94
61055;BME280;46939;48.940;8.258;2022-12-16T07:38:40;99803.25;;;4.30;40.90
61055;BME280;46939;48.940;8.258;2022-12-16T07:41:21;99806.53;;;4.32;40.79
61055;BME280;46939;48.940;8.258;2022-12-16T07:44:02;99811.97;;;4.31;41.04
61055;BME280;46939;48.940;8.258;2022-12-16T07:46:43;99813.41;;;4.25;41.09
61055;BME280;46939;48.940;8.258;2022-12-16T07:49:24;99810.28;;;4.22;41.07
61055;BME280;46939;48.940;8.258;2022-12-16T07:52:07;99816.97;;;4.08;41.69
61055;BME280;46939;48.940;8.258;2022-12-16T07:54:48;99818.91;;;4.06;41.04
61055;BME280;46939;48.940;8.258;2022-12-16T07:57:29;99829.09;;;4.09;41.09
61055;BME280;46939;48.940;8.258;2022-12-16T08:00:10;99833.66;;;4.07;41.36
61055;BME280;46939;48.940;8.258;2022-12-16T08:02:52;99835.13;;;4.01;41.40
61055;BME280;46939;48.940;8.258;2022-12-16T08:05:33;99832.50;;;4.01;40.76
61055;BME280;46939;48.940;8.258;2022-12-16T08:08:16;99840.69;;;3.98;41.62
61055;BME280;46939;48.940;8.258;2022-12-16T08:10:57;99845.31;;;4.12;41.57
61055;BME280;46939;48.940;8.258;2022-12-16T08:13:38;99842.19;;;4.09;41.63
61055;BME280;46939;48.940;8.258;2022-12-16T08:16:19;99852.38;;;4.12;41.79
61055;BME280;46939;48.940;8.258;2022-12-16T08:19:05;99853.03;;;4.14;41.81
61055;BME280;46939;48.940;8.258;2022-12-16T08:21:46;99854.19;;;4.11;41.77
61055;BME280;46939;48.940;8.258;2022-12-16T08:24:29;99861.19;;;4.11;41.98
61055;BME280;46939;48.940;8.258;2022-12-16T08:27:10;99865.94;;;4.07;41.54
61055;BME280;46939;48.940;8.258;2022-12-16T08:29:51;99871.38;;;4.14;41.83
61055;BME280;46939;48.940;8.258;2022-12-16T08:32:31;99865.44;;;4.04;41.69
61055;BME280;46939;48.940;8.258;2022-12-16T08:35:12;99875.94;;;4.04;41.89
61055;BME280;46939;48.940;8.258;2022-12-16T08:37:53;99880.34;;;4.03;41.73
61055;BME280;46939;48.940;8.258;2022-12-16T08:40:53;99886.25;;;4.05;42.02
61055;BME280;46939;48.940;8.258;2022-12-16T08:43:34;99889.91;;;4.12;41.98
61055;BME280;46939;48.940;8.258;2022-12-16T08:46:15;99889.09;;;4.20;41.99
61055;BME280;46939;48.940;8.258;2022-12-16T08:48:56;99890.78;;;4.37;41.69
61055;BME280;46939;48.940;8.258;2022-12-16T08:51:37;99889.63;;;4.32;41.89
61055;BME280;46939;48.940;8.258;2022-12-16T08:54:18;99899.53;;;4.46;41.75
61055;BME280;46939;48.940;8.258;2022-12-16T08:57:01;99906.75;;;4.60;41.69
61055;BME280;46939;48.940;8.258;2022-12-16T08:59:42;99912.22;;;4.83;41.22
61055;BME280;46939;48.940;8.258;2022-12-16T09:02:23;99924.19;;;4.86;41.27
61055;BME280;46939;48.940;8.258;2022-12-16T09:05:05;99913.56;;;5.04;41.16
61055;BME280;46939;48.940;8.258;2022-12-16T09:07:46;99918.00;;;5.20;40.98
61055;BME280;46939;48.940;8.258;2022-12-16T09:10:26;99923.75;;;5.15;40.71
61055;BME280;46939;48.940;8.258;2022-12-16T09:13:12;99927.81;;;5.34;40.54
61055;BME280;46939;48.940;8.258;2022-12-16T09:15:53;99927.03;;;5.50;40.42
61055;BME280;46939;48.940;8.258;2022-12-16T09:18:34;99934.41;;;5.54;40.11
61055;BME280;46939;48.940;8.258;2022-12-16T09:21:14;99940.31;;;5.40;40.02
61055;BME280;46939;48.940;8.258;2022-12-16T09:23:55;99947.19;;;5.41;39.99
61055;BME280;46939;48.940;8.258;2022-12-16T09:26:36;99945.53;;;5.64;39.97
61055;BME280;46939;48.940;8.258;2022-12-16T09:29:19;99951.41;;;5.91;39.75
61055;BME280;46939;48.940;8.258;2022-12-16T09:32:00;99956.16;;;6.20;39.17
61055;BME280;46939;48.940;8.258;2022-12-16T09:34:41;99959.78;;;6.19;39.32
61055;BME280;46939;48.940;8.258;2022-12-16T09:37:22;99961.19;;;6.30;38.94
61055;BME280;46939;48.940;8.258;2022-12-16T09:40:04;99958.00;;;6.51;38.94
61055;BME280;46939;48.940;8.258;2022-12-16T09:42:49;99962.44;;;6.50;38.64
61055;BME280;46939;48.940;8.258;2022-12-16T09:45:43;99971.16;;;6.51;38.65
61055;BME280;46939;48.940;8.258;2022-12-16T09:48:29;99961.13;;;6.54;38.25
61055;BME280;46939;48.940;8.258;2022-12-16T09:51:14;99971.19;;;6.43;38.49
61055;BME280;46939;48.940;8.258;2022-12-16T09:53:56;99959.50;;;6.45;38.68
61055;BME280;46939;48.940;8.258;2022-12-16T09:56:37;99963.34;;;6.34;38.91
61055;BME280;46939;48.940;8.258;2022-12-16T09:59:22;99970.88;;;6.46;38.80
61055;BME280;46939;48.940;8.258;2022-12-16T10:02:11;99967.69;;;6.58;38.32
61055;BME280;46939;48.940;8.258;2022-12-16T10:04:52;99975.00;;;6.71;38.12
61055;BME280;46939;48.940;8.258;2022-12-16T10:07:36;99968.00;;;6.87;37.86
61055;BME280;46939;48.940;8.258;2022-12-16T10:10:30;99973.47;;;6.85;38.13
61055;BME280;46939;48.940;8.258;2022-12-16T10:13:16;99971.00;;;6.83;38.14
61055;BME280;46939;48.940;8.258;2022-12-16T10:16:07;99968.34;;;6.83;38.25
61055;BME280;46939;48.940;8.258;2022-12-16T10:19:00;99972.00;;;6.82;38.22
61055;BME280;46939;48.940;8.258;2022-12-16T10:21:49;99969.31;;;6.91;38.01
61055;BME280;46939;48.940;8.258;2022-12-16T10:24:39;99970.25;;;6.98;38.50
61055;BME280;46939;48.940;8.258;2022-12-16T10:27:30;99975.31;;;7.07;37.94
61055;BME280;46939;48.940;8.258;2022-12-16T10:30:15;99969.50;;;7.12;37.77
61055;BME280;46939;48.940;8.258;2022-12-16T10:32:56;99972.16;;;7.12;37.79
61055;BME280;46939;48.940;8.258;2022-12-16T10:35:43;99960.84;;;7.03;37.83
61055;BME280;46939;48.940;8.258;2022-12-16T10:38:30;99959.03;;;7.04;37.91
61055;BME280;46939;48.940;8.258;2022-12-16T10:41:16;99956.69;;;7.09;38.13
61055;BME280;46939;48.940;8.258;2022-12-16T10:43:57;99958.28;;;6.87;38.39
61055;BME280;46939;48.940;8.258;2022-12-16T10:46:53;99964.38;;;6.88;38.31
61055;BME280;46939;48.940;8.258;2022-12-16T10:49:34;99966.81;;;6.97;37.97
61055;BME280;46939;48.940;8.258;2022-12-16T10:52:17;99969.91;;;7.01;37.69
61055;BME280;46939;48.940;8.258;2022-12-16T10:55:02;99976.41;;;7.13;37.74
61055;BME280;46939;48.940;8.258;2022-12-16T10:57:57;99969.56;;;7.04;38.41
61055;BME280;46939;48.940;8.258;2022-12-16T11:00:43;99971.19;;;7.05;37.91
61055;BME280;46939;48.940;8.258;2022-12-16T11:03:27;99972.84;;;7.06;38.14
61055;BME280;46939;48.940;8.258;2022-12-16T11:06:08;99980.91;;;7.04;38.52
61055;BME280;46939;48.940;8.258;2022-12-16T11:08:52;99979.09;;;7.05;37.96
61055;BME280;46939;48.940;8.258;2022-12-16T11:11:33;99978.84;;;7.15;37.92
61055;BME280;46939;48.940;8.258;2022-12-16T11:14:17;99984.72;;;7.02;37.77
61055;BME280;46939;48.940;8.258;2022-12-16T11:17:18;99981.94;;;6.95;37.92
61055;BME280;46939;48.940;8.258;2022-12-16T11:20:10;99986.53;;;7.01;38.01
61055;BME280;46939;48.940;8.258;2022-12-16T11:23:06;99982.69;;;7.12;37.87
61055;BME280;46939;48.940;8.258;2022-12-16T11:26:03;99992.69;;;7.17;37.59
61055;BME280;46939;48.940;8.258;2022-12-16T11:28:44;99994.09;;;7.04;38.22
61055;BME280;46939;48.940;8.258;2022-12-16T11:31:25;99987.91;;;7.20;37.79
61055;BME280;46939;48.940;8.258;2022-12-16T11:34:08;99996.75;;;7.27;37.58
61055;BME280;46939;48.940;8.258;2022-12-16T11:36:49;99988.44;;;7.16;37.81
61055;BME280;46939;48.940;8.258;2022-12-16T11:39:31;99994.09;;;7.27;37.39
61055;BME280;46939;48.940;8.258;2022-12-16T11:42:19;99989.38;;;7.23;37.51
61055;BME280;46939;48.940;8.258;2022-12-16T11:45:03;99988.53;;;7.22;37.88
61055;BME280;46939;48.940;8.258;2022-12-16T11:47:48;100001.53;;;7.24;37.67
61055;BME280;46939;48.940;8.258;2022-12-16T11:50:34;99995.97;;;7.19;37.67
61055;BME280;46939;48.940;8.258;2022-12-16T11:53:25;100004.13;;;7.32;37.83
61055;BME280;46939;48.940;8.258;2022-12-16T11:56:12;100002.56;;;7.38;37.81
61055;BME280;46939;48.940;8.258;2022-12-16T11:59:01;100008.56;;;7.31;37.60
61055;BME280;46939;48.940;8.258;2022-12-16T12:01:46;100005.13;;;7.31;37.94
61055;BME280;46939;48.940;8.258;2022-12-16T12:04:28;100009.84;;;7.36;37.91
61055;BME280;46939;48.940;8.258;2022-12-16T12:07:20;100020.75;;;7.55;37.54
61055;BME280;46939;48.940;8.258;2022-12-16T12:10:13;100025.88;;;7.72;37.36
61055;BME280;46939;48.940;8.258;2022-12-16T12:13:00;100024.88;;;7.96;37.48
61055;BME280;46939;48.940;8.258;2022-12-16T12:15:53;100027.97;;;8.14;36.91
61055;BME280;46939;48.940;8.258;2022-12-16T12:18:42;100026.34;;;8.28;36.44
61055;BME280;46939;48.940;8.258;2022-12-16T12:21:30;100020.66;;;8.39;36.11
61055;BME280;46939;48.940;8.258;2022-12-16T12:24:22;100028.75;;;8.38;36.35
61055;BME280;46939;48.940;8.258;2022-12-16T12:27:15;100030.75;;;8.65;35.58
61055;BME280;46939;48.940;8.258;2022-12-16T12:30:05;100036.41;;;8.77;35.43
61055;BME280;46939;48.940;8.258;2022-12-16T12:33:02;100042.19;;;8.87;35.76
61055;BME280;46939;48.940;8.258;2022-12-16T12:35:55;100039.63;;;8.94;36.16
61055;BME280;46939;48.940;8.258;2022-12-16T12:39:01;100036.03;;;9.16;35.79
61055;BME280;46939;48.940;8.258;2022-12-16T12:41:54;100036.78;;;9.10;35.25
61055;BME280;46939;48.940;8.258;2022-12-16T12:44:43;100044.69;;;9.10;35.62
61055;BME280;46939;48.940;8.258;2022-12-16T12:47:29;100038.81;;;9.29;35.36
61055;BME280;46939;48.940;8.258;2022-12-16T12:50:17;100042.22;;;9.23;34.77
61055;BME280;46939;48.940;8.258;2022-12-16T12:53:13;100046.41;;;9.18;35.24
61055;BME280;46939;48.940;8.258;2022-12-16T12:56:04;100045.44;;;9.19;35.34
61055;BME280;46939;48.940;8.258;2022-12-16T12:58:49;100051.31;;;9.21;35.38
61055;BME280;46939;48.940;8.258;2022-12-16T13:01:34;100052.78;;;9.23;35.51
61055;BME280;46939;48.940;8.258;2022-12-16T13:04:18;100052.44;;;9.26;35.14
61055;BME280;46939;48.940;8.258;2022-12-16T13:07:04;100053.78;;;9.22;35.32
61055;BME280;46939;48.940;8.258;2022-12-16T13:10:29;100053.13;;;9.35;35.02
61055;BME280;46939;48.940;8.258;2022-12-16T13:13:29;100053.44;;;9.47;35.07
61055;BME280;46939;48.940;8.258;2022-12-16T13:16:11;100061.13;;;9.42;35.06
61055;BME280;46939;48.940;8.258;2022-12-16T13:22:29;100064.34;;;9.22;35.38
61055;BME280;46939;48.940;8.258;2022-12-16T13:25:30;100069.78;;;9.36;35.42
61055;BME280;46939;48.940;8.258;2022-12-16T13:28:19;100075.69;;;9.16;34.79
61055;BME280;46939;48.940;8.258;2022-12-16T13:31:02;100086.66;;;9.35;34.66
61055;BME280;46939;48.940;8.258;2022-12-16T13:33:49;100063.94;;;9.19;34.93
61055;BME280;46939;48.940;8.258;2022-12-16T13:36:33;100085.66;;;9.36;34.76
61055;BME280;46939;48.940;8.258;2022-12-16T13:39:25;100090.69;;;9.31;34.73
61055;BME280;46939;48.940;8.258;2022-12-16T13:42:35;100095.88;;;9.39;34.81
61055;BME280;46939;48.940;8.258;2022-12-16T13:45:32;100095.66;;;9.40;34.69
61055;BME280;46939;48.940;8.258;2022-12-16T13:48:29;100104.25;;;9.42;34.69
61055;BME280;46939;48.940;8.258;2022-12-16T13:51:55;100105.44;;;9.40;34.89
61055;BME280;46939;48.940;8.258;2022-12-16T13:54:42;100117.63;;;9.41;34.83
61055;BME280;46939;48.940;8.258;2022-12-16T13:57:25;100116.00;;;9.40;34.62
61055;BME280;46939;48.940;8.258;2022-12-16T14:00:16;100123.56;;;9.43;34.34
61055;BME280;46939;48.940;8.258;2022-12-16T14:03:02;100122.75;;;9.42;34.54
61055;BME280;46939;48.940;8.258;2022-12-16T14:05:44;100127.13;;;9.35;33.77
61055;BME280;46939;48.940;8.258;2022-12-16T14:08:25;100133.31;;;9.42;34.24
61055;BME280;46939;48.940;8.258;2022-12-16T14:11:18;100145.16;;;9.46;34.45
61055;BME280;46939;48.940;8.258;2022-12-16T14:14:07;100146.59;;;9.49;33.95
61055;BME280;46939;48.940;8.258;2022-12-16T14:16:51;100142.06;;;9.43;34.18
61055;BME280;46939;48.940;8.258;2022-12-16T14:19:41;100143.72;;;9.44;34.41
61055;BME280;46939;48.940;8.258;2022-12-16T14:22:41;100149.66;;;9.46;34.60
61055;BME280;46939;48.940;8.258;2022-12-16T14:25:24;100157.28;;;9.41;34.29
61055;BME280;46939;48.940;8.258;2022-12-16T14:28:18;100154.03;;;9.39;34.23
61055;BME280;46939;48.940;8.258;2022-12-16T14:31:02;100176.81;;;9.40;34.50
61055;BME280;46939;48.940;8.258;2022-12-16T14:33:52;100171.28;;;9.35;34.69